Accueil
METAR-TAF:

METAR-TAF

Aéroports :

Base aérienne

Niederstetten, Allemagne

latitude: 49-24N, longitude: 009-58E, altitude: 468 m

Observation

Le bulletin a été fait il y a 23 minutes, à 18:20 UTC
Vent 9 kt de est/nord-est
Température 2°C
Humidité 87%
Pression 1036 hPa
Visibilité 10 km ou plus
Quelques nuages à une hauteur de 2700 ft

METAR: ETHN 271820Z 06009KT 9999 FEW027 02/M00 Q1036 BLU+

Heure: 19:43 (18:43 UTC)

Prévision

Le bulletin a été fait il y a 31 heures et 43 minutes, à 11:00 UTC
Prévision valable du 26 à 12 UTC au 26 à 21 UTC
Vent 10 kt de ouest/nord-ouest
Visibilité 10 km ou plus
Nuages fragmentés à une hauteur de 15000 ft
Temporairement
du 26 à 14 UTC au 26 à 21 UTC
Vent 10 kt de nord-ouest
Visibilité: 8000 m
Nuages fragmentés à une hauteur de 700 ft
Ciel couvert à une hauteur de 2000 ft
pluie faible

TAF: ETHN 261100Z 2612/2621 30010KT 9999 NSW BKN150 TEMPO 2614/2621 31010KT 8000 -RA BKN007 OVC020

Observations et prévisions météorologiques de plus de 4000 aéroports (messages METAR et TAF).

Les stations disponibles sont représentées par des disques jaunes et rouges sur la carte.

Passer la souris dessus pour voir le nom de la station.

Cliquer dessus pour voir les observations et prévisions météorologiques.

Pour changer de carte: cliquez sur les boutons verts avec une croix noire pour zoomer, sur le bouton vert avec un tiret pour effectuer un zoom arrière, ou sur les flèches vertes pour les cartes adjacentes.


METAR-TAF: